sensor_id;sensor_type;location;lat;lon;timestamp;temperature;humidity
24103;DHT22;12278;53.058;9.028;2022-08-01T00:01:01;18.80;99.90
24103;DHT22;12278;53.058;9.028;2022-08-01T00:05:02;18.70;99.90
24103;DHT22;12278;53.058;9.028;2022-08-01T00:09:06;18.70;99.90
24103;DHT22;12278;53.058;9.028;2022-08-01T00:13:06;18.70;99.90
24103;DHT22;12278;53.058;9.028;2022-08-01T00:17:07;18.60;99.90
24103;DHT22;12278;53.058;9.028;2022-08-01T00:21:08;18.60;99.90
24103;DHT22;12278;53.058;9.028;2022-08-01T00:25:09;18.60;99.90
24103;DHT22;12278;53.058;9.028;2022-08-01T00:29:10;18.60;99.90
24103;DHT22;12278;53.058;9.028;2022-08-01T00:33:11;18.70;99.90
24103;DHT22;12278;53.058;9.028;2022-08-01T00:37:12;18.70;99.90
24103;DHT22;12278;53.058;9.028;2022-08-01T00:41:13;18.60;99.90
24103;DHT22;12278;53.058;9.028;2022-08-01T00:45:14;18.60;99.90
24103;DHT22;12278;53.058;9.028;2022-08-01T00:49:14;18.60;99.90
24103;DHT22;12278;53.058;9.028;2022-08-01T00:53:15;18.60;99.90
24103;DHT22;12278;53.058;9.028;2022-08-01T00:57:16;18.60;99.90
24103;DHT22;12278;53.058;9.028;2022-08-01T01:01:17;18.60;99.90
24103;DHT22;12278;53.058;9.028;2022-08-01T01:05:21;18.60;99.90
24103;DHT22;12278;53.058;9.028;2022-08-01T01:14:21;18.50;99.90
24103;DHT22;12278;53.058;9.028;2022-08-01T01:18:35;18.50;99.90
24103;DHT22;12278;53.058;9.028;2022-08-01T01:31:33;18.50;99.90
24103;DHT22;12278;53.058;9.028;2022-08-01T01:35:45;18.60;99.90
24103;DHT22;12278;53.058;9.028;2022-08-01T01:39:49;18.60;99.90
24103;DHT22;12278;53.058;9.028;2022-08-01T01:43:53;18.50;99.90
24103;DHT22;12278;53.058;9.028;2022-08-01T01:47:56;18.40;99.90
24103;DHT22;12278;53.058;9.028;2022-08-01T01:52:00;18.50;99.90
24103;DHT22;12278;53.058;9.028;2022-08-01T01:56:03;18.40;99.90
24103;DHT22;12278;53.058;9.028;2022-08-01T02:00:05;18.40;99.90
24103;DHT22;12278;53.058;9.028;2022-08-01T02:04:09;18.40;99.90
24103;DHT22;12278;53.058;9.028;2022-08-01T02:08:11;18.30;99.90
24103;DHT22;12278;53.058;9.028;2022-08-01T02:12:16;18.30;99.90
24103;DHT22;12278;53.058;9.028;2022-08-01T02:16:21;18.30;99.90
24103;DHT22;12278;53.058;9.028;2022-08-01T02:20:26;18.30;99.90
24103;DHT22;12278;53.058;9.028;2022-08-01T02:24:42;18.30;99.90
24103;DHT22;12278;53.058;9.028;2022-08-01T02:29:02;18.30;99.90
24103;DHT22;12278;53.058;9.028;2022-08-01T02:33:18;18.30;99.90
24103;DHT22;12278;53.058;9.028;2022-08-01T02:37:21;18.30;99.90
24103;DHT22;12278;53.058;9.028;2022-08-01T02:41:27;18.30;99.90
24103;DHT22;12278;53.058;9.028;2022-08-01T02:45:31;18.20;99.90
24103;DHT22;12278;53.058;9.028;2022-08-01T02:49:41;18.20;99.90
24103;DHT22;12278;53.058;9.028;2022-08-01T02:53:45;18.20;99.90
24103;DHT22;12278;53.058;9.028;2022-08-01T02:57:48;18.20;99.90
24103;DHT22;12278;53.058;9.028;2022-08-01T03:01:55;18.20;99.90
24103;DHT22;12278;53.058;9.028;2022-08-01T03:05:59;18.20;99.90
24103;DHT22;12278;53.058;9.028;2022-08-01T03:10:02;18.20;99.90
24103;DHT22;12278;53.058;9.028;2022-08-01T03:14:06;18.20;99.90
24103;DHT22;12278;53.058;9.028;2022-08-01T03:18:10;18.20;99.90
24103;DHT22;12278;53.058;9.028;2022-08-01T03:22:13;18.20;99.90
24103;DHT22;12278;53.058;9.028;2022-08-01T03:26:17;18.20;99.90
24103;DHT22;12278;53.058;9.028;2022-08-01T03:30:21;18.20;99.90
24103;DHT22;12278;53.058;9.028;2022-08-01T03:34:24;18.10;99.90
24103;DHT22;12278;53.058;9.028;2022-08-01T03:38:26;18.20;99.90
24103;DHT22;12278;53.058;9.028;2022-08-01T03:42:34;18.10;99.90
24103;DHT22;12278;53.058;9.028;2022-08-01T03:46:45;18.00;99.90
24103;DHT22;12278;53.058;9.028;2022-08-01T03:50:50;18.10;99.90
24103;DHT22;12278;53.058;9.028;2022-08-01T03:54:54;18.10;99.90
24103;DHT22;12278;53.058;9.028;2022-08-01T03:58:56;18.10;99.90
24103;DHT22;12278;53.058;9.028;2022-08-01T04:03:00;18.00;99.90
24103;DHT22;12278;53.058;9.028;2022-08-01T04:07:01;18.10;99.90
24103;DHT22;12278;53.058;9.028;2022-08-01T04:11:08;18.00;99.90
24103;DHT22;12278;53.058;9.028;2022-08-01T04:15:09;18.00;99.90
24103;DHT22;12278;53.058;9.028;2022-08-01T04:19:10;18.00;99.90
24103;DHT22;12278;53.058;9.028;2022-08-01T04:23:13;18.00;99.90
24103;DHT22;12278;53.058;9.028;2022-08-01T04:27:24;18.00;99.90
24103;DHT22;12278;53.058;9.028;2022-08-01T04:31:32;18.00;99.90
24103;DHT22;12278;53.058;9.028;2022-08-01T04:35:36;18.00;99.90
24103;DHT22;12278;53.058;9.028;2022-08-01T04:39:41;18.00;99.90
24103;DHT22;12278;53.058;9.028;2022-08-01T04:43:44;18.00;99.90
24103;DHT22;12278;53.058;9.028;2022-08-01T04:47:47;18.00;99.90
24103;DHT22;12278;53.058;9.028;2022-08-01T04:51:53;18.00;99.90
24103;DHT22;12278;53.058;9.028;2022-08-01T04:56:00;18.00;99.90
24103;DHT22;12278;53.058;9.028;2022-08-01T05:00:01;18.00;99.90
24103;DHT22;12278;53.058;9.028;2022-08-01T05:04:03;17.90;99.90
24103;DHT22;12278;53.058;9.028;2022-08-01T05:08:04;18.00;99.90
24103;DHT22;12278;53.058;9.028;2022-08-01T05:12:06;17.90;99.90
24103;DHT22;12278;53.058;9.028;2022-08-01T05:16:08;17.90;99.90
24103;DHT22;12278;53.058;9.028;2022-08-01T05:20:10;17.90;99.90
24103;DHT22;12278;53.058;9.028;2022-08-01T05:24:12;18.00;99.90
24103;DHT22;12278;53.058;9.028;2022-08-01T05:28:13;18.00;99.90
24103;DHT22;12278;53.058;9.028;2022-08-01T05:32:14;18.00;99.90
24103;DHT22;12278;53.058;9.028;2022-08-01T05:36:14;18.00;99.90
24103;DHT22;12278;53.058;9.028;2022-08-01T05:40:15;17.90;99.90
24103;DHT22;12278;53.058;9.028;2022-08-01T05:44:16;18.00;99.90
24103;DHT22;12278;53.058;9.028;2022-08-01T05:48:17;18.00;99.90
24103;DHT22;12278;53.058;9.028;2022-08-01T05:52:18;17.90;99.90
24103;DHT22;12278;53.058;9.028;2022-08-01T05:56:20;18.00;99.90
24103;DHT22;12278;53.058;9.028;2022-08-01T06:00:21;17.80;99.90
24103;DHT22;12278;53.058;9.028;2022-08-01T06:04:22;17.80;99.90
24103;DHT22;12278;53.058;9.028;2022-08-01T06:08:23;17.80;99.90
24103;DHT22;12278;53.058;9.028;2022-08-01T06:12:24;17.90;99.90
24103;DHT22;12278;53.058;9.028;2022-08-01T06:16:25;17.90;99.90
24103;DHT22;12278;53.058;9.028;2022-08-01T06:20:26;18.00;99.90
24103;DHT22;12278;53.058;9.028;2022-08-01T06:24:26;17.80;99.90
24103;DHT22;12278;53.058;9.028;2022-08-01T06:28:28;17.80;99.90
24103;DHT22;12278;53.058;9.028;2022-08-01T06:32:29;18.00;99.90
24103;DHT22;12278;53.058;9.028;2022-08-01T06:36:31;18.10;99.90
24103;DHT22;12278;53.058;9.028;2022-08-01T06:40:32;17.90;99.90
24103;DHT22;12278;53.058;9.028;2022-08-01T06:44:33;17.80;99.90
24103;DHT22;12278;53.058;9.028;2022-08-01T06:48:34;17.80;99.90
24103;DHT22;12278;53.058;9.028;2022-08-01T06:52:39;17.90;99.90
24103;DHT22;12278;53.058;9.028;2022-08-01T06:56:41;18.00;99.90
24103;DHT22;12278;53.058;9.028;2022-08-01T07:00:42;18.00;99.90
24103;DHT22;12278;53.058;9.028;2022-08-01T07:04:42;17.70;99.90
24103;DHT22;12278;53.058;9.028;2022-08-01T07:08:43;17.50;99.90
24103;DHT22;12278;53.058;9.028;2022-08-01T07:12:44;17.70;99.90
24103;DHT22;12278;53.058;9.028;2022-08-01T07:16:45;17.70;99.90
24103;DHT22;12278;53.058;9.028;2022-08-01T07:20:46;17.80;99.90
24103;DHT22;12278;53.058;9.028;2022-08-01T07:24:47;17.70;99.90
24103;DHT22;12278;53.058;9.028;2022-08-01T07:28:47;17.80;99.90
24103;DHT22;12278;53.058;9.028;2022-08-01T07:32:48;17.90;99.90
24103;DHT22;12278;53.058;9.028;2022-08-01T07:36:49;17.90;99.90
24103;DHT22;12278;53.058;9.028;2022-08-01T07:40:51;17.80;99.90
24103;DHT22;12278;53.058;9.028;2022-08-01T07:44:51;17.80;99.90
24103;DHT22;12278;53.058;9.028;2022-08-01T07:48:52;17.90;99.90
24103;DHT22;12278;53.058;9.028;2022-08-01T07:52:53;17.70;99.90
24103;DHT22;12278;53.058;9.028;2022-08-01T07:56:55;17.90;99.90
24103;DHT22;12278;53.058;9.028;2022-08-01T08:00:56;17.80;99.90
24103;DHT22;12278;53.058;9.028;2022-08-01T08:05:00;17.80;99.90
24103;DHT22;12278;53.058;9.028;2022-08-01T08:09:02;17.90;99.90
24103;DHT22;12278;53.058;9.028;2022-08-01T08:13:03;18.00;99.90
24103;DHT22;12278;53.058;9.028;2022-08-01T08:17:05;18.20;99.90
24103;DHT22;12278;53.058;9.028;2022-08-01T08:21:06;18.60;99.90
24103;DHT22;12278;53.058;9.028;2022-08-01T08:25:07;18.80;99.90
24103;DHT22;12278;53.058;9.028;2022-08-01T08:29:08;18.90;99.90
24103;DHT22;12278;53.058;9.028;2022-08-01T08:33:09;19.40;99.90
24103;DHT22;12278;53.058;9.028;2022-08-01T08:37:10;20.50;99.90
24103;DHT22;12278;53.058;9.028;2022-08-01T08:41:11;21.10;99.90
24103;DHT22;12278;53.058;9.028;2022-08-01T08:45:13;21.00;99.90
24103;DHT22;12278;53.058;9.028;2022-08-01T08:49:20;20.60;99.90
24103;DHT22;12278;53.058;9.028;2022-08-01T08:53:27;20.10;99.90
24103;DHT22;12278;53.058;9.028;2022-08-01T08:57:32;19.70;99.90
24103;DHT22;12278;53.058;9.028;2022-08-01T09:01:33;19.80;99.90
24103;DHT22;12278;53.058;9.028;2022-08-01T09:05:35;19.80;99.90
24103;DHT22;12278;53.058;9.028;2022-08-01T09:09:36;20.50;99.90
24103;DHT22;12278;53.058;9.028;2022-08-01T09:13:37;20.40;99.90
24103;DHT22;12278;53.058;9.028;2022-08-01T09:17:41;21.00;99.90
24103;DHT22;12278;53.058;9.028;2022-08-01T09:21:59;21.00;99.90
24103;DHT22;12278;53.058;9.028;2022-08-01T09:26:03;21.20;99.90
24103;DHT22;12278;53.058;9.028;2022-08-01T09:30:17;22.00;99.90
24103;DHT22;12278;53.058;9.028;2022-08-01T09:34:27;21.90;99.90
24103;DHT22;12278;53.058;9.028;2022-08-01T09:38:30;22.60;99.90
24103;DHT22;12278;53.058;9.028;2022-08-01T09:42:31;22.70;99.90
24103;DHT22;12278;53.058;9.028;2022-08-01T09:46:31;22.30;99.90
24103;DHT22;12278;53.058;9.028;2022-08-01T09:50:40;22.40;99.90
24103;DHT22;12278;53.058;9.028;2022-08-01T09:54:44;22.80;99.90
24103;DHT22;12278;53.058;9.028;2022-08-01T09:59:02;22.90;99.90
24103;DHT22;12278;53.058;9.028;2022-08-01T10:03:22;23.30;99.90
24103;DHT22;12278;53.058;9.028;2022-08-01T10:07:24;23.50;99.90
24103;DHT22;12278;53.058;9.028;2022-08-01T10:11:26;23.50;99.90
24103;DHT22;12278;53.058;9.028;2022-08-01T10:15:30;23.60;99.90
24103;DHT22;12278;53.058;9.028;2022-08-01T10:19:35;23.60;99.90
24103;DHT22;12278;53.058;9.028;2022-08-01T10:23:38;23.70;99.90
24103;DHT22;12278;53.058;9.028;2022-08-01T10:27:43;23.70;99.90
24103;DHT22;12278;53.058;9.028;2022-08-01T10:31:48;23.80;99.90
24103;DHT22;12278;53.058;9.028;2022-08-01T10:35:51;23.90;99.90
24103;DHT22;12278;53.058;9.028;2022-08-01T10:39:59;24.10;99.90
24103;DHT22;12278;53.058;9.028;2022-08-01T10:44:01;24.40;99.90
24103;DHT22;12278;53.058;9.028;2022-08-01T10:48:09;23.90;99.90
24103;DHT22;12278;53.058;9.028;2022-08-01T10:52:18;24.10;99.90
24103;DHT22;12278;53.058;9.028;2022-08-01T10:56:19;24.20;99.90
24103;DHT22;12278;53.058;9.028;2022-08-01T11:00:22;24.50;99.90
24103;DHT22;12278;53.058;9.028;2022-08-01T11:04:47;24.30;99.90
24103;DHT22;12278;53.058;9.028;2022-08-01T11:08:53;24.30;99.90
24103;DHT22;12278;53.058;9.028;2022-08-01T11:12:54;24.50;99.90
24103;DHT22;12278;53.058;9.028;2022-08-01T11:34:11;23.90;99.90
24103;DHT22;12278;53.058;9.028;2022-08-01T11:38:26;24.00;99.90
24103;DHT22;12278;53.058;9.028;2022-08-01T11:42:30;24.40;99.90
24103;DHT22;12278;53.058;9.028;2022-08-01T11:51:16;24.80;99.90
24103;DHT22;12278;53.058;9.028;2022-08-01T11:55:17;24.90;99.90
24103;DHT22;12278;53.058;9.028;2022-08-01T11:59:18;25.30;99.90
24103;DHT22;12278;53.058;9.028;2022-08-01T12:03:30;23.80;99.80
24103;DHT22;12278;53.058;9.028;2022-08-01T12:07:33;24.40;99.90
24103;DHT22;12278;53.058;9.028;2022-08-01T12:11:35;24.80;99.90
24103;DHT22;12278;53.058;9.028;2022-08-01T12:15:37;25.00;99.90
24103;DHT22;12278;53.058;9.028;2022-08-01T12:19:38;25.00;99.60
24103;DHT22;12278;53.058;9.028;2022-08-01T12:23:41;25.20;99.90
24103;DHT22;12278;53.058;9.028;2022-08-01T12:27:43;25.00;98.80
24103;DHT22;12278;53.058;9.028;2022-08-01T12:31:45;25.30;98.90
24103;DHT22;12278;53.058;9.028;2022-08-01T12:35:46;25.70;99.80
24103;DHT22;12278;53.058;9.028;2022-08-01T12:39:47;24.70;98.60
24103;DHT22;12278;53.058;9.028;2022-08-01T12:43:48;24.60;99.90
24103;DHT22;12278;53.058;9.028;2022-08-01T12:47:49;24.30;99.00
24103;DHT22;12278;53.058;9.028;2022-08-01T12:51:52;24.60;99.90
24103;DHT22;12278;53.058;9.028;2022-08-01T12:55:55;25.10;99.60
24103;DHT22;12278;53.058;9.028;2022-08-01T13:00:13;24.90;98.00
24103;DHT22;12278;53.058;9.028;2022-08-01T13:04:14;25.00;99.40
24103;DHT22;12278;53.058;9.028;2022-08-01T13:08:16;24.90;98.70
24103;DHT22;12278;53.058;9.028;2022-08-01T13:12:20;25.20;99.80
24103;DHT22;12278;53.058;9.028;2022-08-01T13:16:25;24.70;99.00
24103;DHT22;12278;53.058;9.028;2022-08-01T13:20:28;24.30;99.90
24103;DHT22;12278;53.058;9.028;2022-08-01T13:24:30;25.10;99.90
24103;DHT22;12278;53.058;9.028;2022-08-01T13:28:32;26.10;98.50
24103;DHT22;12278;53.058;9.028;2022-08-01T13:32:33;26.40;98.10
24103;DHT22;12278;53.058;9.028;2022-08-01T13:36:34;26.70;95.80
24103;DHT22;12278;53.058;9.028;2022-08-01T13:40:35;26.90;96.70
24103;DHT22;12278;53.058;9.028;2022-08-01T13:44:36;27.20;95.60
24103;DHT22;12278;53.058;9.028;2022-08-01T13:48:37;27.00;94.80
24103;DHT22;12278;53.058;9.028;2022-08-01T13:52:38;26.50;94.10
24103;DHT22;12278;53.058;9.028;2022-08-01T13:56:39;25.80;95.90
24103;DHT22;12278;53.058;9.028;2022-08-01T14:00:40;25.00;97.10
24103;DHT22;12278;53.058;9.028;2022-08-01T14:04:40;24.30;97.40
24103;DHT22;12278;53.058;9.028;2022-08-01T14:08:43;24.50;99.90
24103;DHT22;12278;53.058;9.028;2022-08-01T14:12:44;24.70;98.60
24103;DHT22;12278;53.058;9.028;2022-08-01T14:16:45;25.20;98.60
24103;DHT22;12278;53.058;9.028;2022-08-01T14:20:46;26.10;97.60
24103;DHT22;12278;53.058;9.028;2022-08-01T14:24:47;28.70;95.10
24103;DHT22;12278;53.058;9.028;2022-08-01T14:28:49;29.50;91.30
24103;DHT22;12278;53.058;9.028;2022-08-01T14:32:50;29.00;92.80
24103;DHT22;12278;53.058;9.028;2022-08-01T14:36:51;29.40;92.10
24103;DHT22;12278;53.058;9.028;2022-08-01T14:40:53;28.30;90.90
24103;DHT22;12278;53.058;9.028;2022-08-01T14:44:55;26.30;93.80
24103;DHT22;12278;53.058;9.028;2022-08-01T14:48:56;27.80;92.60
24103;DHT22;12278;53.058;9.028;2022-08-01T14:52:57;28.10;91.60
24103;DHT22;12278;53.058;9.028;2022-08-01T14:56:59;29.50;91.60
24103;DHT22;12278;53.058;9.028;2022-08-01T15:01:00;27.30;92.20
24103;DHT22;12278;53.058;9.028;2022-08-01T15:05:01;27.60;93.50
24103;DHT22;12278;53.058;9.028;2022-08-01T15:09:02;28.70;91.00
24103;DHT22;12278;53.058;9.028;2022-08-01T15:13:03;28.40;91.40
24103;DHT22;12278;53.058;9.028;2022-08-01T15:17:04;28.40;91.40
24103;DHT22;12278;53.058;9.028;2022-08-01T15:21:07;29.00;91.00
24103;DHT22;12278;53.058;9.028;2022-08-01T15:25:10;28.30;89.80
24103;DHT22;12278;53.058;9.028;2022-08-01T15:29:11;28.40;90.20
24103;DHT22;12278;53.058;9.028;2022-08-01T15:33:13;27.70;91.00
24103;DHT22;12278;53.058;9.028;2022-08-01T15:37:14;27.50;91.10
24103;DHT22;12278;53.058;9.028;2022-08-01T15:41:15;28.70;90.50
24103;DHT22;12278;53.058;9.028;2022-08-01T15:45:16;30.10;87.70
24103;DHT22;12278;53.058;9.028;2022-08-01T15:49:19;30.40;85.30
24103;DHT22;12278;53.058;9.028;2022-08-01T15:53:22;30.30;86.10
24103;DHT22;12278;53.058;9.028;2022-08-01T15:57:23;30.00;86.90
24103;DHT22;12278;53.058;9.028;2022-08-01T16:01:24;29.40;84.30
24103;DHT22;12278;53.058;9.028;2022-08-01T16:05:28;28.00;88.50
24103;DHT22;12278;53.058;9.028;2022-08-01T16:09:29;26.40;91.00
24103;DHT22;12278;53.058;9.028;2022-08-01T16:13:30;25.10;91.60
24103;DHT22;12278;53.058;9.028;2022-08-01T16:17:31;24.10;95.10
24103;DHT22;12278;53.058;9.028;2022-08-01T16:21:31;25.40;93.30
24103;DHT22;12278;53.058;9.028;2022-08-01T16:25:32;26.20;91.90
24103;DHT22;12278;53.058;9.028;2022-08-01T16:29:33;25.50;92.80
24103;DHT22;12278;53.058;9.028;2022-08-01T16:33:34;24.60;94.20
24103;DHT22;12278;53.058;9.028;2022-08-01T16:37:35;25.20;93.10
24103;DHT22;12278;53.058;9.028;2022-08-01T16:41:36;25.40;92.60
24103;DHT22;12278;53.058;9.028;2022-08-01T16:45:37;24.80;93.90
24103;DHT22;12278;53.058;9.028;2022-08-01T16:49:38;25.00;93.30
24103;DHT22;12278;53.058;9.028;2022-08-01T16:53:39;25.10;93.70
24103;DHT22;12278;53.058;9.028;2022-08-01T16:57:39;24.60;93.40
24103;DHT22;12278;53.058;9.028;2022-08-01T17:01:41;24.00;93.80
24103;DHT22;12278;53.058;9.028;2022-08-01T17:05:42;23.40;94.90
24103;DHT22;12278;53.058;9.028;2022-08-01T17:09:43;22.60;96.90
24103;DHT22;12278;53.058;9.028;2022-08-01T17:13:43;22.20;98.30
24103;DHT22;12278;53.058;9.028;2022-08-01T17:17:44;22.00;98.70
24103;DHT22;12278;53.058;9.028;2022-08-01T17:21:45;21.50;99.70
24103;DHT22;12278;53.058;9.028;2022-08-01T17:25:46;21.50;99.90
24103;DHT22;12278;53.058;9.028;2022-08-01T17:29:47;21.20;99.70
24103;DHT22;12278;53.058;9.028;2022-08-01T17:33:49;20.80;99.90
24103;DHT22;12278;53.058;9.028;2022-08-01T17:37:49;20.40;99.90
24103;DHT22;12278;53.058;9.028;2022-08-01T17:41:50;20.10;99.90
24103;DHT22;12278;53.058;9.028;2022-08-01T17:45:51;19.90;99.90
24103;DHT22;12278;53.058;9.028;2022-08-01T17:49:53;19.80;99.90
24103;DHT22;12278;53.058;9.028;2022-08-01T17:53:54;19.70;99.90
24103;DHT22;12278;53.058;9.028;2022-08-01T17:57:56;19.50;99.90
24103;DHT22;12278;53.058;9.028;2022-08-01T18:01:57;19.50;99.90
24103;DHT22;12278;53.058;9.028;2022-08-01T18:05:58;19.40;99.90
24103;DHT22;12278;53.058;9.028;2022-08-01T18:09:59;19.40;99.90
24103;DHT22;12278;53.058;9.028;2022-08-01T18:14:00;19.10;99.90
24103;DHT22;12278;53.058;9.028;2022-08-01T18:18:00;19.00;99.90
24103;DHT22;12278;53.058;9.028;2022-08-01T18:22:01;19.00;99.90
24103;DHT22;12278;53.058;9.028;2022-08-01T18:26:02;18.90;99.90
24103;DHT22;12278;53.058;9.028;2022-08-01T18:30:06;18.80;99.90
24103;DHT22;12278;53.058;9.028;2022-08-01T18:34:07;18.60;99.90
24103;DHT22;12278;53.058;9.028;2022-08-01T18:38:08;18.50;99.90
24103;DHT22;12278;53.058;9.028;2022-08-01T18:42:09;18.40;99.90
24103;DHT22;12278;53.058;9.028;2022-08-01T18:46:10;18.40;99.90
24103;DHT22;12278;53.058;9.028;2022-08-01T18:50:11;18.30;99.90
24103;DHT22;12278;53.058;9.028;2022-08-01T18:54:15;18.20;99.90
24103;DHT22;12278;53.058;9.028;2022-08-01T18:58:16;18.00;99.90
24103;DHT22;12278;53.058;9.028;2022-08-01T19:02:18;18.00;99.90
24103;DHT22;12278;53.058;9.028;2022-08-01T19:06:19;17.90;99.90
24103;DHT22;12278;53.058;9.028;2022-08-01T19:10:20;17.80;99.90
24103;DHT22;12278;53.058;9.028;2022-08-01T19:14:21;17.70;99.90
24103;DHT22;12278;53.058;9.028;2022-08-01T19:18:22;17.70;99.90
24103;DHT22;12278;53.058;9.028;2022-08-01T19:22:27;17.60;99.90
24103;DHT22;12278;53.058;9.028;2022-08-01T19:26:28;17.60;99.90
24103;DHT22;12278;53.058;9.028;2022-08-01T19:30:32;17.50;99.90
24103;DHT22;12278;53.058;9.028;2022-08-01T19:34:38;17.40;99.90
24103;DHT22;12278;53.058;9.028;2022-08-01T19:39:16;17.40;99.90
24103;DHT22;12278;53.058;9.028;2022-08-01T19:43:20;17.30;99.90
24103;DHT22;12278;53.058;9.028;2022-08-01T19:47:22;17.10;99.90
24103;DHT22;12278;53.058;9.028;2022-08-01T19:51:22;17.00;99.90
24103;DHT22;12278;53.058;9.028;2022-08-01T19:55:25;16.90;99.90
24103;DHT22;12278;53.058;9.028;2022-08-01T19:59:27;17.00;99.90
24103;DHT22;12278;53.058;9.028;2022-08-01T20:03:31;16.80;99.90
24103;DHT22;12278;53.058;9.028;2022-08-01T20:07:34;16.70;99.90
24103;DHT22;12278;53.058;9.028;2022-08-01T20:11:35;16.60;99.90
24103;DHT22;12278;53.058;9.028;2022-08-01T20:15:37;16.50;99.90
24103;DHT22;12278;53.058;9.028;2022-08-01T20:19:39;16.50;99.90
24103;DHT22;12278;53.058;9.028;2022-08-01T20:23:42;16.40;99.90
24103;DHT22;12278;53.058;9.028;2022-08-01T20:27:45;16.30;99.90
24103;DHT22;12278;53.058;9.028;2022-08-01T20:31:48;16.20;99.90
24103;DHT22;12278;53.058;9.028;2022-08-01T20:35:51;16.00;99.90
24103;DHT22;12278;53.058;9.028;2022-08-01T20:39:53;15.90;99.90
24103;DHT22;12278;53.058;9.028;2022-08-01T20:43:57;15.90;99.90
24103;DHT22;12278;53.058;9.028;2022-08-01T20:48:00;15.70;99.90
24103;DHT22;12278;53.058;9.028;2022-08-01T20:52:01;15.60;99.90
24103;DHT22;12278;53.058;9.028;2022-08-01T21:00:48;15.60;99.90
24103;DHT22;12278;53.058;9.028;2022-08-01T21:09:13;15.40;99.90
24103;DHT22;12278;53.058;9.028;2022-08-01T21:13:26;15.30;99.90
24103;DHT22;12278;53.058;9.028;2022-08-01T21:22:15;15.20;99.90
24103;DHT22;12278;53.058;9.028;2022-08-01T21:26:20;15.10;99.90
24103;DHT22;12278;53.058;9.028;2022-08-01T21:30:23;15.00;99.90
24103;DHT22;12278;53.058;9.028;2022-08-01T21:34:24;14.90;99.90
24103;DHT22;12278;53.058;9.028;2022-08-01T21:38:26;14.90;99.90
24103;DHT22;12278;53.058;9.028;2022-08-01T21:42:27;14.80;99.90
24103;DHT22;12278;53.058;9.028;2022-08-01T21:46:29;14.80;99.90
24103;DHT22;12278;53.058;9.028;2022-08-01T21:50:44;14.70;99.90
24103;DHT22;12278;53.058;9.028;2022-08-01T21:55:12;14.60;99.90
24103;DHT22;12278;53.058;9.028;2022-08-01T22:03:55;14.50;99.90
24103;DHT22;12278;53.058;9.028;2022-08-01T22:08:01;14.50;99.90
24103;DHT22;12278;53.058;9.028;2022-08-01T22:12:06;14.40;99.90
24103;DHT22;12278;53.058;9.028;2022-08-01T22:16:09;14.40;99.90
24103;DHT22;12278;53.058;9.028;2022-08-01T22:20:12;14.20;99.90
24103;DHT22;12278;53.058;9.028;2022-08-01T22:24:13;14.20;99.90
24103;DHT22;12278;53.058;9.028;2022-08-01T22:28:15;14.10;99.90
24103;DHT22;12278;53.058;9.028;2022-08-01T22:32:16;14.10;99.90
24103;DHT22;12278;53.058;9.028;2022-08-01T22:36:19;14.00;99.90
24103;DHT22;12278;53.058;9.028;2022-08-01T22:40:20;14.00;99.90
24103;DHT22;12278;53.058;9.028;2022-08-01T22:44:28;13.80;99.90
24103;DHT22;12278;53.058;9.028;2022-08-01T22:49:07;13.90;99.90
24103;DHT22;12278;53.058;9.028;2022-08-01T22:58:02;13.80;99.90
24103;DHT22;12278;53.058;9.028;2022-08-01T23:02:06;13.60;99.90
24103;DHT22;12278;53.058;9.028;2022-08-01T23:06:10;13.60;99.90
24103;DHT22;12278;53.058;9.028;2022-08-01T23:10:17;13.60;99.90
24103;DHT22;12278;53.058;9.028;2022-08-01T23:14:21;13.60;99.90
24103;DHT22;12278;53.058;9.028;2022-08-01T23:18:24;13.50;99.90
24103;DHT22;12278;53.058;9.028;2022-08-01T23:22:31;13.40;99.90
24103;DHT22;12278;53.058;9.028;2022-08-01T23:26:34;13.30;99.90
24103;DHT22;12278;53.058;9.028;2022-08-01T23:30:37;13.30;99.90
24103;DHT22;12278;53.058;9.028;2022-08-01T23:34:38;13.00;99.90
24103;DHT22;12278;53.058;9.028;2022-08-01T23:38:38;13.00;99.90
24103;DHT22;12278;53.058;9.028;2022-08-01T23:42:39;13.00;99.90
24103;DHT22;12278;53.058;9.028;2022-08-01T23:46:40;13.10;99.90
24103;DHT22;12278;53.058;9.028;2022-08-01T23:50:41;13.00;99.90
24103;DHT22;12278;53.058;9.028;2022-08-01T23:54:42;13.00;99.90
24103;DHT22;12278;53.058;9.028;2022-08-01T23:58:43;13.00;99.90
